Time;durP1;ratioP1;P1;durP2;ratioP2;P2;SDS_P1;SDS_P2;PMS_P1;PMS_P2;Temp;Humidity;BMP_temperature;BMP_pressure;BME280_temperature;BME280_humidity;BME280_pressure;Samples;Min_cycle;Max_cycle;Signal;HPM_P1;HPM_P2
2024/04/05 00:00:45;;;;;;;1.48;0.90;;;;;;;;;;5098378;28;20366;-81
2024/04/05 00:03:11;;;;;;;1.20;0.93;;;;;;;;;;5098136;28;20464;-81
2024/04/05 00:05:37;;;;;;;2.80;1.20;;;;;;;;;;5079970;28;20398;-80
2024/04/05 00:08:03;;;;;;;1.58;1.05;;;;;;;;;;5079046;28;20440;-81
2024/04/05 00:10:29;;;;;;;2.03;1.30;;;;;;;;;;5096566;28;20373;-81
2024/04/05 00:12:55;;;;;;;1.70;1.10;;;;;;;;;;5097229;28;20410;-81
2024/04/05 00:15:21;;;;;;;1.55;0.95;;;;;;;;;;5097417;28;20378;-81
2024/04/05 00:17:48;;;;;;;2.47;1.23;;;;;;;;;;5098737;28;20402;-81
2024/04/05 00:20:14;;;;;;;1.88;1.00;;;;;;;;;;5079504;28;20390;-81
2024/04/05 00:22:40;;;;;;;1.58;0.98;;;;;;;;;;5097476;28;20381;-81
2024/04/05 00:25:06;;;;;;;1.80;1.20;;;;;;;;;;5098725;28;20490;-81
2024/04/05 00:27:32;;;;;;;1.65;1.00;;;;;;;;;;5098498;28;20905;-81
2024/04/05 00:29:58;;;;;;;1.25;1.10;;;;;;;;;;5098929;28;20468;-81
2024/04/05 00:32:24;;;;;;;1.40;1.10;;;;;;;;;;5080421;28;20490;-81
2024/04/05 00:34:50;;;;;;;1.52;0.80;;;;;;;;;;5111014;28;20384;-81
2024/04/05 00:37:17;;;;;;;1.75;0.82;;;;;;;;;;5107497;28;20397;-81
2024/04/05 00:39:43;;;;;;;1.20;0.93;;;;;;;;;;5101743;28;20382;-81
2024/04/05 00:42:08;;;;;;;1.23;0.95;;;;;;;;;;5101741;28;20389;-81
2024/04/05 00:44:34;;;;;;;1.65;0.98;;;;;;;;;;5101265;28;20418;-82
2024/04/05 00:47:01;;;;;;;1.00;0.80;;;;;;;;;;5101068;28;20414;-81
2024/04/05 00:49:27;;;;;;;2.03;1.13;;;;;;;;;;5104643;28;20380;-81
2024/04/05 00:51:53;;;;;;;2.13;0.90;;;;;;;;;;5112698;28;20374;-81
2024/04/05 00:54:20;;;;;;;1.40;0.93;;;;;;;;;;5101785;28;20382;-81
2024/04/05 00:56:47;;;;;;;1.30;0.82;;;;;;;;;;5101418;28;20515;-81
2024/04/05 00:59:15;;;;;;;1.75;0.80;;;;;;;;;;5101928;28;20378;-81
2024/04/05 01:01:41;;;;;;;1.60;0.80;;;;;;;;;;5102076;28;20385;-81
2024/04/05 01:04:07;;;;;;;1.30;0.88;;;;;;;;;;5101712;28;20374;-81
2024/04/05 01:06:33;;;;;;;1.65;1.00;;;;;;;;;;5101367;28;20839;-82
2024/04/05 01:09:00;;;;;;;1.83;0.90;;;;;;;;;;5099428;28;20445;-81
2024/04/05 01:11:26;;;;;;;2.05;1.02;;;;;;;;;;5100287;28;20414;-81
2024/04/05 01:13:52;;;;;;;2.28;1.20;;;;;;;;;;5100984;28;20393;-81
2024/04/05 01:16:18;;;;;;;2.97;1.05;;;;;;;;;;5100547;28;20397;-80
2024/04/05 01:18:44;;;;;;;1.27;0.90;;;;;;;;;;5100393;28;20377;-81
2024/04/05 01:21:11;;;;;;;1.65;1.00;;;;;;;;;;5100592;28;20904;-81
2024/04/05 01:23:40;;;;;;;1.45;0.80;;;;;;;;;;5115110;28;20382;-80
2024/04/05 01:26:06;;;;;;;1.55;0.80;;;;;;;;;;5100729;28;20378;-80
2024/04/05 01:28:32;;;;;;;1.33;0.88;;;;;;;;;;5102875;28;20419;-81
2024/04/05 01:30:58;;;;;;;2.65;1.00;;;;;;;;;;5111999;28;20370;-81
2024/04/05 01:33:24;;;;;;;1.30;0.83;;;;;;;;;;5098970;28;20457;-82
2024/04/05 01:35:50;;;;;;;1.58;1.08;;;;;;;;;;5113410;28;20374;-81
2024/04/05 01:38:16;;;;;;;1.58;1.08;;;;;;;;;;5099530;28;20447;-82
2024/04/05 01:40:42;;;;;;;1.90;1.20;;;;;;;;;;5100624;28;20603;-81
2024/04/05 01:43:08;;;;;;;2.08;1.40;;;;;;;;;;5112510;28;20382;-81
2024/04/05 01:45:34;;;;;;;2.33;1.48;;;;;;;;;;5112728;28;20391;-81
2024/04/05 01:48:00;;;;;;;2.13;1.50;;;;;;;;;;5099455;28;20405;-81
2024/04/05 01:50:26;;;;;;;2.60;1.60;;;;;;;;;;5099798;28;20378;-81
2024/04/05 01:52:52;;;;;;;1.55;1.25;;;;;;;;;;5098904;28;20382;-81
2024/04/05 01:55:18;;;;;;;1.75;1.20;;;;;;;;;;5098936;28;20370;-81
2024/04/05 01:57:44;;;;;;;1.42;1.23;;;;;;;;;;5099272;28;20386;-81
2024/04/05 02:00:10;;;;;;;1.52;1.25;;;;;;;;;;5100359;28;20370;-81
2024/04/05 02:02:37;;;;;;;2.15;1.20;;;;;;;;;;5100282;28;20385;-81
2024/04/05 02:05:03;;;;;;;2.88;1.52;;;;;;;;;;5099220;28;20389;-81
2024/04/05 02:07:29;;;;;;;2.33;1.35;;;;;;;;;;5098934;28;20484;-81
2024/04/05 02:09:55;;;;;;;1.45;1.30;;;;;;;;;;5113389;28;20457;-81
2024/04/05 02:12:22;;;;;;;1.73;1.25;;;;;;;;;;5095023;28;21122;-81
2024/04/05 02:14:48;;;;;;;1.27;1.17;;;;;;;;;;5092630;28;20409;-81
2024/04/05 02:17:15;;;;;;;1.98;1.30;;;;;;;;;;5099274;28;20383;-81
2024/04/05 02:19:41;;;;;;;1.90;1.40;;;;;;;;;;5098230;28;20393;-81
2024/04/05 02:22:08;;;;;;;2.65;1.50;;;;;;;;;;5089328;28;20415;-81
2024/04/05 02:24:34;;;;;;;1.63;1.45;;;;;;;;;;5108912;28;20390;-81
2024/04/05 02:27:01;;;;;;;1.90;1.33;;;;;;;;;;5111948;28;20412;-81
2024/04/05 02:29:27;;;;;;;2.35;1.25;;;;;;;;;;5112247;28;20376;-81
2024/04/05 02:31:53;;;;;;;2.20;1.50;;;;;;;;;;5111036;28;21210;-81
2024/04/05 02:34:19;;;;;;;2.40;1.80;;;;;;;;;;5114086;28;20372;-81
2024/04/05 02:36:45;;;;;;;1.85;1.40;;;;;;;;;;5108089;28;20382;-81
2024/04/05 02:39:11;;;;;;;2.42;1.48;;;;;;;;;;5098632;28;20393;-81
2024/04/05 02:41:37;;;;;;;2.55;1.60;;;;;;;;;;5098639;28;20441;-81
2024/04/05 02:44:03;;;;;;;1.70;1.42;;;;;;;;;;5098881;28;20388;-81
2024/04/05 02:46:30;;;;;;;2.45;1.50;;;;;;;;;;5098461;28;20374;-81
2024/04/05 02:48:56;;;;;;;2.95;1.73;;;;;;;;;;5102664;28;20399;-80
2024/04/05 02:51:22;;;;;;;2.70;2.00;;;;;;;;;;5118969;28;20478;-81
2024/04/05 02:53:48;;;;;;;3.13;2.10;;;;;;;;;;5116378;28;20400;-81
2024/04/05 02:56:14;;;;;;;2.40;1.73;;;;;;;;;;5098405;28;20398;-81
2024/04/05 02:58:41;;;;;;;3.30;2.17;;;;;;;;;;5110952;28;20393;-81
2024/04/05 03:01:07;;;;;;;2.77;2.10;;;;;;;;;;5098630;28;20382;-81
2024/04/05 03:03:33;;;;;;;2.58;1.90;;;;;;;;;;5098564;28;20457;-81
2024/04/05 03:05:59;;;;;;;3.30;1.90;;;;;;;;;;5110427;28;20373;-81
2024/04/05 03:08:25;;;;;;;2.60;1.70;;;;;;;;;;5098136;28;20763;-81
2024/04/05 03:10:51;;;;;;;2.73;1.80;;;;;;;;;;5098685;28;20374;-81
2024/04/05 03:13:17;;;;;;;2.20;1.80;;;;;;;;;;5098229;28;20386;-81
2024/04/05 03:15:43;;;;;;;2.35;1.70;;;;;;;;;;5106197;28;20442;-81
2024/04/05 03:18:10;;;;;;;2.57;2.03;;;;;;;;;;5105113;28;20438;-81
2024/04/05 03:20:36;;;;;;;2.70;1.95;;;;;;;;;;5098790;28;20900;-81
2024/04/05 03:23:02;;;;;;;2.22;1.80;;;;;;;;;;5110174;28;20388;-81
2024/04/05 03:25:28;;;;;;;2.20;1.70;;;;;;;;;;5101813;28;20793;-81
2024/04/05 03:27:54;;;;;;;1.95;1.70;;;;;;;;;;5098126;28;20477;-81
2024/04/05 03:30:20;;;;;;;2.42;1.60;;;;;;;;;;5098704;28;20385;-81
2024/04/05 03:32:46;;;;;;;3.22;1.80;;;;;;;;;;5098724;28;20413;-81
2024/04/05 03:35:12;;;;;;;1.70;1.30;;;;;;;;;;5099077;28;20411;-82
2024/04/05 03:37:38;;;;;;;2.25;1.50;;;;;;;;;;5098091;28;20389;-81
2024/04/05 03:40:05;;;;;;;2.67;1.50;;;;;;;;;;5110168;28;20376;-81
2024/04/05 03:42:31;;;;;;;2.83;1.30;;;;;;;;;;5103015;28;20387;-81
2024/04/05 03:44:57;;;;;;;2.20;1.33;;;;;;;;;;5097404;28;20382;-81
2024/04/05 03:47:23;;;;;;;1.50;1.40;;;;;;;;;;5098119;28;20410;-81
2024/04/05 03:49:50;;;;;;;1.63;1.20;;;;;;;;;;5098231;28;20374;-81
2024/04/05 03:52:16;;;;;;;2.42;1.70;;;;;;;;;;5097917;28;20382;-81
2024/04/05 03:54:42;;;;;;;2.05;1.38;;;;;;;;;;5098163;28;20381;-82
2024/04/05 03:57:08;;;;;;;1.63;1.48;;;;;;;;;;5109087;28;20369;-81
2024/04/05 03:59:33;;;;;;;2.15;1.70;;;;;;;;;;5100688;28;20371;-81
2024/04/05 04:01:59;;;;;;;1.60;1.50;;;;;;;;;;5098057;28;20461;-81
2024/04/05 04:04:26;;;;;;;2.53;1.67;;;;;;;;;;5097489;28;20371;-81
2024/04/05 04:06:52;;;;;;;3.28;2.00;;;;;;;;;;5097850;28;20745;-81
2024/04/05 04:09:18;;;;;;;1.80;1.47;;;;;;;;;;5101092;28;20388;-81
2024/04/05 04:11:45;;;;;;;1.70;1.40;;;;;;;;;;5101626;28;20769;-81
2024/04/05 04:14:13;;;;;;;2.65;2.10;;;;;;;;;;5100714;28;20480;-80
2024/04/05 04:16:40;;;;;;;2.30;1.70;;;;;;;;;;5106423;28;20749;-81
2024/04/05 04:19:07;;;;;;;2.25;2.05;;;;;;;;;;5113079;28;20374;-81
2024/04/05 04:21:33;;;;;;;2.05;1.73;;;;;;;;;;5101670;28;20377;-81
2024/04/05 04:23:59;;;;;;;1.48;1.15;;;;;;;;;;5102091;28;20859;-81
2024/04/05 04:26:25;;;;;;;2.00;1.30;;;;;;;;;;5101884;28;20427;-81
2024/04/05 04:28:51;;;;;;;1.92;1.35;;;;;;;;;;5115770;28;20516;-81
2024/04/05 04:31:17;;;;;;;2.20;1.50;;;;;;;;;;5102322;28;20386;-81
2024/04/05 04:33:44;;;;;;;1.58;1.30;;;;;;;;;;5105879;28;20505;-81
2024/04/05 04:36:11;;;;;;;2.92;1.50;;;;;;;;;;5111292;28;20380;-81
2024/04/05 04:38:37;;;;;;;2.40;1.30;;;;;;;;;;5082622;28;20406;-81
2024/04/05 04:41:03;;;;;;;1.90;1.05;;;;;;;;;;5101448;28;20385;-81
2024/04/05 04:43:29;;;;;;;2.22;1.45;;;;;;;;;;5101079;28;20410;-81
2024/04/05 04:45:55;;;;;;;1.63;1.30;;;;;;;;;;5102264;28;20453;-81
2024/04/05 04:48:21;;;;;;;1.95;1.35;;;;;;;;;;5101155;28;20413;-80
2024/04/05 04:50:47;;;;;;;1.42;1.33;;;;;;;;;;5100974;28;20378;-80
2024/04/05 04:53:13;;;;;;;2.70;1.50;;;;;;;;;;5100505;28;20370;-81
2024/04/05 04:55:41;;;;;;;1.88;1.35;;;;;;;;;;5099713;28;20465;-81
2024/04/05 04:58:11;;;;;;;1.48;1.30;;;;;;;;;;5114476;28;20403;-81
2024/04/05 05:00:36;;;;;;;2.97;1.50;;;;;;;;;;5100522;28;20385;-81
2024/04/05 05:03:02;;;;;;;1.67;1.40;;;;;;;;;;5099734;28;20382;-81
2024/04/05 05:05:28;;;;;;;3.92;1.80;;;;;;;;;;5100257;28;20386;-81
2024/04/05 05:07:54;;;;;;;2.00;1.40;;;;;;;;;;5100184;28;20400;-81
2024/04/05 05:10:21;;;;;;;2.22;1.50;;;;;;;;;;5100253;28;20413;-81
2024/04/05 05:12:48;;;;;;;2.20;1.70;;;;;;;;;;5101840;28;20383;-81
2024/04/05 05:15:13;;;;;;;1.98;1.58;;;;;;;;;;5087199;28;20374;-81
2024/04/05 05:17:39;;;;;;;1.90;1.65;;;;;;;;;;5106985;28;20389;-82
2024/04/05 05:20:11;;;;;;;2.10;1.75;;;;;;;;;;5099312;28;20378;-81
2024/04/05 05:22:37;;;;;;;2.10;1.90;;;;;;;;;;5100144;28;20610;-80
2024/04/05 05:25:03;;;;;;;2.30;1.90;;;;;;;;;;5100057;28;20488;-80
2024/04/05 05:27:29;;;;;;;2.08;1.83;;;;;;;;;;5100239;28;20405;-80
2024/04/05 05:29:55;;;;;;;3.55;2.00;;;;;;;;;;5100498;28;20798;-80
2024/04/05 05:32:21;;;;;;;2.53;2.13;;;;;;;;;;5100411;28;20395;-80
2024/04/05 05:34:47;;;;;;;3.00;1.70;;;;;;;;;;5100970;28;20393;-81
2024/04/05 05:37:13;;;;;;;2.20;1.95;;;;;;;;;;5100467;28;20386;-82
2024/04/05 05:39:39;;;;;;;2.42;2.03;;;;;;;;;;5100361;28;20378;-80
2024/04/05 05:42:05;;;;;;;2.20;2.00;;;;;;;;;;5100348;28;20398;-80
2024/04/05 05:44:32;;;;;;;2.50;2.28;;;;;;;;;;5101948;28;20436;-80
2024/04/05 05:46:58;;;;;;;2.45;1.90;;;;;;;;;;5100908;28;20404;-81
2024/04/05 05:49:24;;;;;;;2.43;1.97;;;;;;;;;;5100830;28;20468;-80
2024/04/05 05:51:50;;;;;;;2.60;1.75;;;;;;;;;;5100464;28;20438;-80
2024/04/05 05:54:19;;;;;;;2.42;1.90;;;;;;;;;;5102401;28;20370;-81
2024/04/05 05:56:45;;;;;;;2.10;1.70;;;;;;;;;;5110627;28;20364;-81
2024/04/05 05:59:11;;;;;;;2.00;1.80;;;;;;;;;;5108441;28;20860;-81
2024/04/05 06:01:37;;;;;;;1.67;1.58;;;;;;;;;;5101977;28;20460;-81
2024/04/05 06:04:04;;;;;;;2.90;2.10;;;;;;;;;;5102134;28;20428;-81
2024/04/05 06:06:30;;;;;;;2.40;1.50;;;;;;;;;;5106078;28;20909;-81
2024/04/05 06:08:56;;;;;;;1.80;1.65;;;;;;;;;;5112432;28;20390;-81
2024/04/05 06:11:22;;;;;;;1.92;1.60;;;;;;;;;;5101799;28;20715;-81
2024/04/05 06:13:48;;;;;;;2.72;1.75;;;;;;;;;;5101938;28;20409;-81
2024/04/05 06:16:14;;;;;;;2.47;1.60;;;;;;;;;;5101968;28;20385;-81
2024/04/05 06:18:45;;;;;;;2.67;1.40;;;;;;;;;;5102012;28;20374;-81
2024/04/05 06:21:11;;;;;;;2.00;1.60;;;;;;;;;;5100387;28;20469;-81
2024/04/05 06:23:37;;;;;;;2.42;1.48;;;;;;;;;;5099121;28;20436;-81
2024/04/05 06:26:03;;;;;;;1.90;1.57;;;;;;;;;;5097765;28;20379;-81
2024/04/05 06:28:29;;;;;;;3.22;1.95;;;;;;;;;;5098164;28;20425;-81
2024/04/05 06:30:56;;;;;;;3.47;2.20;;;;;;;;;;5097749;28;20839;-81
2024/04/05 06:33:22;;;;;;;2.60;1.83;;;;;;;;;;5098311;28;20505;-81
2024/04/05 06:35:56;;;;;;;2.90;1.90;;;;;;;;;;5105631;28;20411;-81
2024/04/05 06:38:22;;;;;;;3.83;2.17;;;;;;;;;;5104368;28;20389;-81
2024/04/05 06:40:54;;;;;;;2.45;1.92;;;;;;;;;;5098229;28;20386;-81
2024/04/05 06:43:21;;;;;;;1.60;1.50;;;;;;;;;;5097638;28;20382;-83
2024/04/05 06:45:54;;;;;;;2.20;1.80;;;;;;;;;;5097727;28;20436;-81
2024/04/05 06:48:20;;;;;;;1.98;1.42;;;;;;;;;;5097915;28;20751;-81
2024/04/05 06:50:46;;;;;;;2.63;1.80;;;;;;;;;;5098199;28;20472;-81
2024/04/05 06:53:12;;;;;;;3.85;2.05;;;;;;;;;;5098002;28;20401;-81
2024/04/05 06:55:38;;;;;;;4.13;1.88;;;;;;;;;;5097406;28;20473;-81
2024/04/05 06:58:04;;;;;;;3.33;2.13;;;;;;;;;;5112299;28;20417;-82
2024/04/05 07:00:30;;;;;;;3.35;2.10;;;;;;;;;;5097775;28;20800;-82
2024/04/05 07:02:56;;;;;;;3.67;2.50;;;;;;;;;;5097628;28;20389;-82
2024/04/05 07:05:22;;;;;;;3.20;2.07;;;;;;;;;;5097753;28;20386;-81
2024/04/05 07:07:48;;;;;;;4.68;2.40;;;;;;;;;;5097192;28;20401;-81
2024/04/05 07:10:14;;;;;;;3.65;2.13;;;;;;;;;;5097525;28;20443;-81
2024/04/05 07:12:42;;;;;;;3.65;2.08;;;;;;;;;;5097479;28;20374;-82
2024/04/05 07:15:09;;;;;;;4.97;2.80;;;;;;;;;;5103349;28;20372;-81
2024/04/05 07:17:35;;;;;;;4.07;2.42;;;;;;;;;;5102343;28;20378;-81
2024/04/05 07:20:03;;;;;;;3.97;2.25;;;;;;;;;;5100731;28;20398;-81
2024/04/05 07:22:29;;;;;;;3.92;2.30;;;;;;;;;;5097583;28;20378;-81
2024/04/05 07:24:55;;;;;;;3.47;2.10;;;;;;;;;;5097558;28;20435;-81
2024/04/05 07:27:21;;;;;;;3.90;2.30;;;;;;;;;;5097416;28;20404;-80
2024/04/05 07:29:48;;;;;;;3.00;2.22;;;;;;;;;;5079389;28;20386;-80
2024/04/05 07:32:14;;;;;;;3.63;2.47;;;;;;;;;;5097992;28;20410;-80
2024/04/05 07:34:39;;;;;;;2.50;2.30;;;;;;;;;;5096334;28;20514;-80
2024/04/05 07:37:05;;;;;;;3.45;2.47;;;;;;;;;;5101025;28;20393;-80
2024/04/05 07:39:34;;;;;;;4.13;2.70;;;;;;;;;;5097642;28;20446;-80
2024/04/05 07:42:00;;;;;;;5.82;3.10;;;;;;;;;;5097559;28;20457;-80
2024/04/05 07:44:26;;;;;;;4.40;3.42;;;;;;;;;;5101035;28;20416;-80
2024/04/05 07:46:52;;;;;;;4.30;3.10;;;;;;;;;;5101664;28;20386;-80
2024/04/05 07:49:18;;;;;;;5.20;3.13;;;;;;;;;;5083876;28;20386;-80
2024/04/05 07:51:44;;;;;;;3.53;2.60;;;;;;;;;;5100997;28;20374;-80
2024/04/05 07:54:11;;;;;;;4.82;3.30;;;;;;;;;;5100612;28;20480;-80
2024/04/05 07:56:37;;;;;;;7.57;3.05;;;;;;;;;;5101325;28;20374;-81
2024/04/05 07:59:04;;;;;;;4.00;2.60;;;;;;;;;;5100497;28;20388;-81
2024/04/05 08:01:30;;;;;;;5.28;3.17;;;;;;;;;;5101055;28;20840;-81
2024/04/05 08:03:56;;;;;;;4.93;2.55;;;;;;;;;;5101089;28;20428;-80
2024/04/05 08:06:22;;;;;;;5.50;3.10;;;;;;;;;;5101200;28;20393;-81
2024/04/05 08:08:47;;;;;;;4.35;2.72;;;;;;;;;;5101216;28;20488;-82
2024/04/05 08:11:13;;;;;;;5.53;2.93;;;;;;;;;;5101459;28;20393;-82
2024/04/05 08:13:39;;;;;;;5.00;3.30;;;;;;;;;;5099611;28;20378;-83
2024/04/05 08:16:06;;;;;;;6.35;3.55;;;;;;;;;;5100852;28;20400;-81
2024/04/05 08:18:32;;;;;;;4.72;2.90;;;;;;;;;;5100513;28;20382;-82
2024/04/05 08:20:58;;;;;;;5.15;3.20;;;;;;;;;;5100208;28;20449;-81
2024/04/05 08:23:24;;;;;;;3.92;2.80;;;;;;;;;;5082151;28;20378;-81
2024/04/05 08:25:50;;;;;;;4.88;2.63;;;;;;;;;;5100905;28;20382;-81
2024/04/05 08:28:18;;;;;;;4.35;2.80;;;;;;;;;;5086102;28;20416;-81
2024/04/05 08:30:44;;;;;;;4.93;2.88;;;;;;;;;;5100529;28;20839;-81
2024/04/05 08:33:10;;;;;;;3.90;2.92;;;;;;;;;;5099917;28;20459;-81
2024/04/05 08:35:37;;;;;;;3.80;2.63;;;;;;;;;;5100794;28;20435;-81
2024/04/05 08:38:03;;;;;;;3.50;2.60;;;;;;;;;;5099951;28;20378;-81
2024/04/05 08:40:29;;;;;;;3.70;2.40;;;;;;;;;;5100182;28;20401;-81
2024/04/05 08:42:57;;;;;;;3.33;1.90;;;;;;;;;;5100194;28;20412;-81
2024/04/05 08:45:25;;;;;;;3.90;2.33;;;;;;;;;;5099915;28;20443;-81
2024/04/05 08:47:52;;;;;;;4.50;2.10;;;;;;;;;;5096585;28;20517;-79
2024/04/05 08:50:18;;;;;;;4.63;1.95;;;;;;;;;;5102441;28;20441;-79
2024/04/05 08:52:44;;;;;;;4.15;1.88;;;;;;;;;;5099738;28;20409;-79
2024/04/05 08:55:10;;;;;;;3.87;1.90;;;;;;;;;;5111280;28;20459;-79
2024/04/05 08:57:38;;;;;;;4.72;2.08;;;;;;;;;;5100292;28;20385;-79
2024/04/05 09:00:07;;;;;;;3.00;2.03;;;;;;;;;;5099407;28;20461;-79
2024/04/05 09:02:38;;;;;;;3.47;1.42;;;;;;;;;;5097741;28;20384;-80
2024/04/05 09:05:05;;;;;;;3.70;1.58;;;;;;;;;;5099293;28;20381;-79
2024/04/05 09:07:31;;;;;;;5.50;1.83;;;;;;;;;;5102697;28;20413;-79
2024/04/05 09:09:57;;;;;;;2.72;1.40;;;;;;;;;;5081557;28;20422;-80
2024/04/05 09:12:25;;;;;;;3.47;1.70;;;;;;;;;;5099024;28;20394;-80
2024/04/05 09:15:00;;;;;;;1.80;1.13;;;;;;;;;;5099353;28;20459;-81
2024/04/05 09:17:26;;;;;;;2.47;1.42;;;;;;;;;;5099144;28;20400;-80
2024/04/05 09:20:16;;;;;;;1.98;1.30;;;;;;;;;;5099729;28;20443;-80
2024/04/05 09:22:43;;;;;;;1.80;1.20;;;;;;;;;;5088544;28;20366;-80
2024/04/05 09:25:09;;;;;;;1.90;1.13;;;;;;;;;;5099822;28;20401;-82
2024/04/05 09:27:35;;;;;;;3.20;1.15;;;;;;;;;;5099274;28;20413;-81
2024/04/05 09:30:02;;;;;;;2.92;1.20;;;;;;;;;;5099798;28;20412;-80
2024/04/05 09:32:28;;;;;;;2.35;1.20;;;;;;;;;;5099306;28;20779;-80
2024/04/05 09:34:54;;;;;;;1.55;1.00;;;;;;;;;;5099578;28;20722;-82
2024/04/05 09:37:21;;;;;;;3.08;1.13;;;;;;;;;;5099345;28;20473;-80
2024/04/05 09:39:48;;;;;;;2.55;1.25;;;;;;;;;;5098948;28;20410;-80
2024/04/05 09:42:15;;;;;;;1.65;0.98;;;;;;;;;;5099536;28;20449;-80
2024/04/05 09:44:41;;;;;;;2.05;0.90;;;;;;;;;;5099388;28;20404;-80
2024/04/05 09:47:08;;;;;;;3.15;1.13;;;;;;;;;;5099274;28;20393;-82
2024/04/05 09:49:34;;;;;;;2.15;0.90;;;;;;;;;;5098970;28;20773;-80
2024/04/05 09:52:02;;;;;;;1.45;0.88;;;;;;;;;;5099382;28;20405;-82
2024/04/05 09:54:31;;;;;;;2.70;0.90;;;;;;;;;;5098569;28;20378;-80
2024/04/05 09:56:58;;;;;;;0.98;0.73;;;;;;;;;;5097841;28;20389;-80
2024/04/05 09:59:29;;;;;;;2.50;0.95;;;;;;;;;;5098418;28;20473;-79
2024/04/05 10:01:55;;;;;;;1.92;0.90;;;;;;;;;;5098213;28;20362;-79
2024/04/05 10:04:21;;;;;;;4.00;1.00;;;;;;;;;;5098775;28;20740;-80
2024/04/05 10:06:47;;;;;;;1.00;0.60;;;;;;;;;;5097947;28;20832;-81
2024/04/05 10:09:18;;;;;;;1.88;0.90;;;;;;;;;;5098777;28;20378;-81
2024/04/05 10:11:45;;;;;;;1.30;0.70;;;;;;;;;;5079889;28;20382;-79
2024/04/05 10:14:20;;;;;;;2.67;0.80;;;;;;;;;;5097912;28;20751;-80
2024/04/05 10:16:46;;;;;;;2.15;0.70;;;;;;;;;;5098170;28;20370;-80
2024/04/05 10:19:12;;;;;;;1.50;0.80;;;;;;;;;;5098439;28;20389;-79
2024/04/05 10:21:38;;;;;;;1.67;0.90;;;;;;;;;;5098349;28;20374;-79
2024/04/05 10:24:08;;;;;;;2.60;0.82;;;;;;;;;;5098244;28;20370;-79
2024/04/05 10:26:34;;;;;;;1.73;0.73;;;;;;;;;;5098286;28;20477;-80
2024/04/05 10:29:09;;;;;;;1.87;1.10;;;;;;;;;;5097875;28;20451;-80
2024/04/05 10:31:38;;;;;;;1.65;0.70;;;;;;;;;;5098161;28;20382;-81
2024/04/05 10:34:04;;;;;;;2.40;0.75;;;;;;;;;;5098363;28;20393;-80
2024/04/05 10:36:37;;;;;;;2.03;0.70;;;;;;;;;;5098187;28;20381;-79
2024/04/05 10:39:18;;;;;;;1.75;0.70;;;;;;;;;;5097756;28;20381;-79
2024/04/05 10:41:45;;;;;;;2.15;0.80;;;;;;;;;;5097931;28;20392;-80
2024/04/05 10:44:13;;;;;;;1.10;0.68;;;;;;;;;;5097533;28;20378;-79
2024/04/05 10:46:40;;;;;;;1.30;0.67;;;;;;;;;;5097558;28;20800;-79
2024/04/05 10:49:06;;;;;;;1.42;0.63;;;;;;;;;;5097552;28;20470;-79
2024/04/05 10:51:32;;;;;;;1.07;0.70;;;;;;;;;;5080053;28;20398;-80
2024/04/05 10:54:11;;;;;;;1.38;0.70;;;;;;;;;;5097747;28;20427;-80
2024/04/05 10:56:41;;;;;;;1.97;0.60;;;;;;;;;;5098172;28;20871;-80
2024/04/05 10:59:07;;;;;;;1.48;0.70;;;;;;;;;;5097921;28;20384;-80
2024/04/05 11:01:35;;;;;;;1.95;0.50;;;;;;;;;;5097492;28;20370;-81
2024/04/05 11:04:02;;;;;;;3.08;0.60;;;;;;;;;;5098122;28;20408;-80
2024/04/05 11:06:28;;;;;;;0.95;0.30;;;;;;;;;;5097107;28;20453;-81
2024/04/05 11:08:55;;;;;;;3.00;0.50;;;;;;;;;;5097366;28;20425;-80
2024/04/05 11:11:21;;;;;;;1.10;0.40;;;;;;;;;;5097842;28;20381;-80
2024/04/05 11:13:47;;;;;;;1.60;0.70;;;;;;;;;;5098440;28;20423;-81
2024/04/05 11:16:16;;;;;;;1.90;0.70;;;;;;;;;;5097133;28;20385;-80
2024/04/05 11:18:42;;;;;;;0.90;0.47;;;;;;;;;;5097248;28;20410;-80
2024/04/05 11:21:16;;;;;;;2.53;0.52;;;;;;;;;;5097370;28;20431;-81
2024/04/05 11:23:49;;;;;;;1.58;0.50;;;;;;;;;;5096838;28;20382;-82
2024/04/05 11:26:20;;;;;;;1.40;0.65;;;;;;;;;;5096824;28;20780;-80
2024/04/05 11:28:47;;;;;;;1.52;0.60;;;;;;;;;;5096928;28;20469;-80
2024/04/05 11:31:13;;;;;;;1.00;0.40;;;;;;;;;;5097056;28;20461;-80
2024/04/05 11:33:39;;;;;;;1.70;0.60;;;;;;;;;;5097217;28;20397;-80
2024/04/05 11:36:05;;;;;;;1.35;0.52;;;;;;;;;;5079624;28;20848;-80
2024/04/05 11:38:31;;;;;;;1.95;0.75;;;;;;;;;;5097631;28;20426;-80
2024/04/05 11:40:57;;;;;;;1.20;0.70;;;;;;;;;;5097670;28;20386;-80
2024/04/05 11:43:24;;;;;;;3.50;0.60;;;;;;;;;;5097492;28;20876;-80
2024/04/05 11:45:50;;;;;;;1.17;0.50;;;;;;;;;;5097000;28;20388;-81
2024/04/05 11:48:16;;;;;;;1.05;0.70;;;;;;;;;;5097163;28;20448;-80
2024/04/05 11:50:42;;;;;;;0.95;0.60;;;;;;;;;;5094805;28;20386;-80
2024/04/05 11:53:08;;;;;;;1.27;0.70;;;;;;;;;;5097505;28;20378;-80
2024/04/05 11:55:34;;;;;;;1.70;0.60;;;;;;;;;;5097078;28;20386;-80
2024/04/05 11:58:00;;;;;;;2.55;0.70;;;;;;;;;;5097335;28;20373;-80
2024/04/05 12:00:26;;;;;;;1.50;0.63;;;;;;;;;;5097583;28;20445;-80
2024/04/05 12:02:52;;;;;;;0.93;0.60;;;;;;;;;;5097117;28;20382;-80
2024/04/05 12:05:19;;;;;;;1.88;0.70;;;;;;;;;;5097394;28;20374;-81
2024/04/05 12:07:48;;;;;;;1.80;0.70;;;;;;;;;;5096987;28;20394;-82
2024/04/05 12:10:14;;;;;;;2.50;0.60;;;;;;;;;;5096952;28;20844;-80
2024/04/05 12:12:40;;;;;;;3.13;0.70;;;;;;;;;;5097331;28;20498;-81
2024/04/05 12:15:07;;;;;;;0.95;0.50;;;;;;;;;;5096988;28;20378;-80
2024/04/05 12:17:35;;;;;;;1.48;0.50;;;;;;;;;;5096669;28;20374;-80
2024/04/05 12:20:03;;;;;;;1.43;0.70;;;;;;;;;;5097011;28;20386;-80
2024/04/05 12:22:29;;;;;;;1.20;0.57;;;;;;;;;;5096779;28;20382;-80
2024/04/05 12:24:55;;;;;;;2.00;0.50;;;;;;;;;;5096792;28;20385;-80
2024/04/05 12:27:21;;;;;;;2.25;0.57;;;;;;;;;;5096657;28;20842;-80
2024/04/05 12:29:47;;;;;;;2.45;0.60;;;;;;;;;;5098738;28;20454;-80
2024/04/05 12:32:14;;;;;;;1.25;0.60;;;;;;;;;;5099817;28;20820;-80
2024/04/05 12:34:40;;;;;;;1.55;0.57;;;;;;;;;;5100242;28;20378;-80
2024/04/05 12:37:09;;;;;;;3.13;0.57;;;;;;;;;;5100567;28;20385;-80
2024/04/05 12:39:45;;;;;;;2.40;0.60;;;;;;;;;;5100383;28;20385;-82
2024/04/05 12:42:11;;;;;;;1.48;0.60;;;;;;;;;;5100463;28;20461;-80
2024/04/05 12:44:37;;;;;;;1.50;0.40;;;;;;;;;;5100085;28;20421;-81
2024/04/05 12:47:04;;;;;;;1.87;0.50;;;;;;;;;;5100207;28;20382;-81
2024/04/05 12:49:30;;;;;;;1.67;0.53;;;;;;;;;;5100692;28;20462;-80
2024/04/05 12:51:56;;;;;;;1.17;0.32;;;;;;;;;;5100391;28;20408;-82
2024/04/05 12:54:22;;;;;;;1.40;0.57;;;;;;;;;;5100330;28;20382;-80
2024/04/05 12:56:48;;;;;;;0.50;0.40;;;;;;;;;;5099995;28;20386;-80
2024/04/05 12:59:14;;;;;;;1.08;0.50;;;;;;;;;;5100306;28;20801;-80
2024/04/05 13:01:41;;;;;;;0.97;0.40;;;;;;;;;;5099974;28;20378;-83
2024/04/05 13:04:07;;;;;;;1.80;0.47;;;;;;;;;;5100901;28;20410;-82
2024/04/05 13:06:36;;;;;;;1.13;0.53;;;;;;;;;;5100395;28;20455;-82
2024/04/05 13:09:02;;;;;;;2.80;0.60;;;;;;;;;;5100031;28;20402;-82
2024/04/05 13:11:28;;;;;;;0.93;0.50;;;;;;;;;;5099115;28;20863;-82
2024/04/05 13:13:54;;;;;;;2.13;0.60;;;;;;;;;;5099960;28;20404;-82
2024/04/05 13:16:20;;;;;;;1.20;0.60;;;;;;;;;;5100050;28;20400;-82
2024/04/05 13:18:46;;;;;;;2.63;0.68;;;;;;;;;;5099066;28;20389;-82
2024/04/05 13:21:14;;;;;;;0.90;0.47;;;;;;;;;;5099331;28;20382;-82
2024/04/05 13:23:45;;;;;;;1.77;0.40;;;;;;;;;;5100150;28;20378;-82
2024/04/05 13:26:12;;;;;;;2.67;0.70;;;;;;;;;;5100488;28;20385;-82
2024/04/05 13:28:38;;;;;;;1.13;0.40;;;;;;;;;;5100514;28;20403;-82
2024/04/05 13:31:04;;;;;;;1.15;0.52;;;;;;;;;;5099662;28;20380;-82
2024/04/05 13:33:30;;;;;;;1.67;0.50;;;;;;;;;;5099616;28;20402;-82
2024/04/05 13:35:56;;;;;;;1.88;0.57;;;;;;;;;;5099734;28;20378;-82
2024/04/05 13:38:23;;;;;;;2.67;0.60;;;;;;;;;;5099339;28;20396;-82
2024/04/05 13:40:49;;;;;;;2.95;0.50;;;;;;;;;;5098508;28;20712;-82
2024/04/05 13:43:15;;;;;;;1.40;0.60;;;;;;;;;;5099169;28;20983;-80
2024/04/05 13:45:41;;;;;;;1.15;0.55;;;;;;;;;;5099231;28;20374;-81
2024/04/05 13:48:07;;;;;;;1.45;0.50;;;;;;;;;;5097647;28;20406;-82
2024/04/05 13:50:34;;;;;;;1.10;0.60;;;;;;;;;;5101409;28;20380;-82
2024/04/05 13:53:00;;;;;;;1.00;0.60;;;;;;;;;;5114734;28;20386;-82
2024/04/05 13:55:26;;;;;;;1.20;0.80;;;;;;;;;;5107569;28;20404;-81
2024/04/05 13:57:53;;;;;;;1.42;0.80;;;;;;;;;;5101240;28;20382;-82
2024/04/05 14:00:19;;;;;;;0.82;0.60;;;;;;;;;;5098470;28;20389;-82
2024/04/05 14:02:45;;;;;;;2.00;0.50;;;;;;;;;;5098853;28;20381;-82
2024/04/05 14:05:11;;;;;;;2.80;0.60;;;;;;;;;;5098230;28;20381;-82
2024/04/05 14:07:37;;;;;;;1.75;0.70;;;;;;;;;;5098328;28;20397;-83
2024/04/05 14:10:03;;;;;;;1.48;0.68;;;;;;;;;;5098426;28;20397;-82
2024/04/05 14:12:29;;;;;;;1.90;0.60;;;;;;;;;;5098448;28;20877;-81
2024/04/05 14:14:56;;;;;;;1.25;0.50;;;;;;;;;;5100844;28;20380;-82
2024/04/05 14:17:22;;;;;;;0.88;0.60;;;;;;;;;;5079156;28;20415;-82
2024/04/05 14:19:48;;;;;;;1.17;0.60;;;;;;;;;;5094092;28;20382;-82
2024/04/05 14:22:14;;;;;;;1.80;0.60;;;;;;;;;;5098829;28;20389;-82
2024/04/05 14:24:41;;;;;;;2.65;0.60;;;;;;;;;;5099198;28;20393;-81
2024/04/05 14:27:07;;;;;;;0.80;0.40;;;;;;;;;;5098654;28;20483;-82
2024/04/05 14:29:34;;;;;;;1.70;0.70;;;;;;;;;;5099178;28;20875;-82
2024/04/05 14:32:00;;;;;;;1.43;0.50;;;;;;;;;;5102334;28;20442;-83
2024/04/05 14:34:26;;;;;;;2.10;0.60;;;;;;;;;;5108553;28;20382;-81
2024/04/05 14:36:52;;;;;;;1.85;0.52;;;;;;;;;;5098203;28;20376;-82
2024/04/05 14:39:18;;;;;;;1.80;0.50;;;;;;;;;;5097943;28;20378;-82